createdAt,value
2023-03-26T00:03:30.968Z,954.00
2023-03-26T00:07:30.948Z,905.00
2023-03-26T00:11:31.014Z,1051.00
2023-03-26T00:15:31.024Z,1042.00
2023-03-26T00:19:31.033Z,987.00
2023-03-26T00:23:31.094Z,1023.00
2023-03-26T00:27:31.104Z,1015.00
2023-03-26T00:31:31.189Z,1066.00
2023-03-26T00:35:31.251Z,946.00
2023-03-26T00:39:31.247Z,978.00
2023-03-26T00:43:31.334Z,1060.00
2023-03-26T00:47:31.398Z,979.00
2023-03-26T00:51:31.440Z,1037.00
2023-03-26T00:55:31.520Z,913.00
2023-03-26T00:59:31.589Z,1027.00
2023-03-26T01:03:31.722Z,1067.00
2023-03-26T01:07:31.668Z,1066.00
2023-03-26T01:11:31.689Z,1159.00
2023-03-26T01:15:31.774Z,1170.00
2023-03-26T01:19:31.737Z,1156.00
2023-03-26T01:23:31.752Z,1224.00
2023-03-26T01:27:31.761Z,1225.00
2023-03-26T01:31:31.761Z,1195.00
2023-03-26T01:35:31.838Z,1278.00
2023-03-26T01:39:31.830Z,1271.00
2023-03-26T01:43:31.844Z,1247.00
2023-03-26T01:47:31.879Z,1129.00
2023-03-26T01:51:31.824Z,1171.00
2023-03-26T01:55:31.812Z,1164.00
2023-03-26T01:59:31.821Z,1198.00
2023-03-26T02:03:31.920Z,1191.00
2023-03-26T02:07:31.848Z,1131.00
2023-03-26T02:11:35.444Z,1217.00
2023-03-26T04:11:31.141Z,1217.00
2023-03-26T04:15:31.156Z,1162.00
2023-03-26T04:19:31.133Z,1218.00
2023-03-26T04:23:31.164Z,1299.00
2023-03-26T04:27:31.168Z,1259.00
2023-03-26T04:31:31.231Z,1277.00
2023-03-26T04:35:31.161Z,1257.00
2023-03-26T04:39:31.152Z,1243.00
2023-03-26T04:43:31.211Z,1181.00
2023-03-26T04:47:31.154Z,1157.00
2023-03-26T04:51:31.149Z,1181.00
2023-03-26T04:55:31.152Z,1225.00
2023-03-26T04:59:31.176Z,1228.00
2023-03-26T05:03:31.186Z,1215.00
2023-03-26T05:07:31.192Z,1196.00
2023-03-26T05:11:31.205Z,1154.00
2023-03-26T05:15:31.213Z,1196.00
2023-03-26T05:19:31.224Z,1115.00
2023-03-26T05:23:31.221Z,1133.00
2023-03-26T05:27:31.235Z,1173.00
2023-03-26T05:31:31.293Z,1164.00
2023-03-26T05:35:31.376Z,1166.00
2023-03-26T05:39:31.291Z,1154.00
2023-03-26T05:43:31.360Z,1136.00
2023-03-26T05:47:31.377Z,1108.00
2023-03-26T05:51:31.358Z,1163.00
2023-03-26T05:55:31.389Z,1042.00
2023-03-26T05:59:31.475Z,1128.00
2023-03-26T06:03:31.723Z,1117.00
2023-03-26T06:07:31.626Z,1068.00
2023-03-26T06:11:31.768Z,1104.00
2023-03-26T06:15:31.896Z,1139.00
2023-03-26T06:19:31.975Z,1086.00
2023-03-26T06:23:32.138Z,1117.00
2023-03-26T06:27:32.269Z,1162.00
2023-03-26T06:31:32.493Z,1144.00
2023-03-26T06:35:32.522Z,1178.00
2023-03-26T06:39:32.397Z,1238.00
2023-03-26T06:43:32.377Z,1250.00
2023-03-26T06:47:32.368Z,1278.00
2023-03-26T06:51:32.309Z,1320.00
2023-03-26T06:55:32.266Z,1284.00
2023-03-26T06:59:32.243Z,1288.00
2023-03-26T07:03:32.213Z,1332.00
2023-03-26T07:07:32.160Z,1324.00
2023-03-26T07:11:32.131Z,1231.00
2023-03-26T07:15:32.078Z,1280.00
2023-03-26T07:19:32.069Z,1408.00
2023-03-26T07:23:32.065Z,1388.00
2023-03-26T07:27:32.272Z,1383.00
2023-03-26T07:31:32.325Z,1431.00
2023-03-26T07:35:32.634Z,1426.00
2023-03-26T07:39:32.368Z,1393.00
2023-03-26T07:43:32.462Z,1394.00
2023-03-26T07:47:32.557Z,1196.00
2023-03-26T07:51:32.552Z,1308.00
2023-03-26T07:55:32.726Z,1349.00
2023-03-26T07:59:32.684Z,1316.00
2023-03-26T08:03:32.814Z,1323.00
2023-03-26T08:07:32.609Z,1382.00
2023-03-26T08:11:32.576Z,1374.00
2023-03-26T08:15:32.634Z,1366.00
2023-03-26T08:19:32.516Z,1208.00
2023-03-26T08:23:32.567Z,1228.00
2023-03-26T08:27:32.435Z,1343.00
2023-03-26T08:31:32.447Z,1176.00
2023-03-26T08:35:32.498Z,1193.00
2023-03-26T08:39:32.336Z,1087.00
2023-03-26T08:43:32.327Z,1165.00
2023-03-26T08:47:32.326Z,1159.00
2023-03-26T08:51:32.507Z,1143.00
2023-03-26T08:55:32.729Z,1113.00
2023-03-26T08:59:32.959Z,1094.00
2023-03-26T09:03:32.916Z,1143.00
2023-03-26T09:07:32.871Z,1122.00
2023-03-26T09:11:32.811Z,1115.00
2023-03-26T09:15:32.769Z,1092.00
2023-03-26T09:19:32.784Z,1072.00
2023-03-26T09:23:32.697Z,1100.00
2023-03-26T09:27:32.683Z,1107.00
2023-03-26T09:31:32.704Z,1101.00
2023-03-26T09:35:32.697Z,1103.00
2023-03-26T09:39:32.565Z,1131.00
2023-03-26T09:43:32.531Z,1100.00
2023-03-26T09:47:32.535Z,1006.00
2023-03-26T09:51:32.466Z,1038.00
2023-03-26T09:55:32.450Z,1102.00
2023-03-26T09:59:32.376Z,1004.00
2023-03-26T10:03:32.354Z,1022.00
2023-03-26T10:07:32.313Z,1023.00
2023-03-26T10:11:32.299Z,1036.00
2023-03-26T10:15:32.253Z,1036.00
2023-03-26T10:19:32.195Z,1045.00
2023-03-26T10:23:32.272Z,982.00
2023-03-26T10:27:32.335Z,1017.00
2023-03-26T10:31:32.330Z,1022.00
2023-03-26T10:35:32.420Z,963.00
2023-03-26T10:39:36.251Z,1024.00
2023-03-26T10:43:33.322Z,1054.00
2023-03-26T10:47:32.341Z,1179.00
2023-03-26T10:51:32.246Z,1086.00
2023-03-26T10:55:32.208Z,1149.00
2023-03-26T10:59:32.179Z,1160.00
2023-03-26T11:03:32.137Z,1081.00
2023-03-26T11:07:32.099Z,1147.00
2023-03-26T11:11:32.091Z,1144.00
2023-03-26T11:15:32.085Z,1192.00
2023-03-26T11:19:32.019Z,1190.00
2023-03-26T11:23:31.983Z,1126.00
2023-03-26T11:27:31.934Z,1128.00
2023-03-26T11:31:31.958Z,1148.00
2023-03-26T11:35:40.462Z,1111.00
2023-03-26T11:39:32.843Z,1001.00
2023-03-26T11:43:31.825Z,1122.00
2023-03-26T11:47:31.789Z,1111.00
2023-03-26T11:51:31.738Z,1177.00
2023-03-26T11:55:31.680Z,1151.00
2023-03-26T11:59:32.740Z,1115.00
2023-03-26T12:03:31.612Z,1129.00
2023-03-26T12:07:31.588Z,1120.00
2023-03-26T12:11:33.890Z,1164.00
2023-03-26T12:15:31.512Z,956.00
2023-03-26T12:19:31.477Z,1043.00
2023-03-26T12:23:31.473Z,943.00
2023-03-26T12:27:31.408Z,806.00
2023-03-26T12:31:31.413Z,726.00
2023-03-26T12:35:31.340Z,732.00
2023-03-26T12:40:07.350Z,657.00
2023-03-26T12:44:53.907Z,649.00
2023-03-26T12:48:00.250Z,647.00
2023-03-26T12:51:32.196Z,652.00
2023-03-26T12:55:31.159Z,629.00
2023-03-26T12:59:31.117Z,623.00
2023-03-26T13:03:31.180Z,579.00
2023-03-26T13:07:31.077Z,609.00
2023-03-26T13:11:31.033Z,605.00
2023-03-26T13:15:30.976Z,588.00
2023-03-26T13:19:30.960Z,611.00
2023-03-26T13:23:30.922Z,605.00
2023-03-26T13:27:30.885Z,584.00
2023-03-26T13:31:31.051Z,596.00
2023-03-26T13:35:31.170Z,604.00
2023-03-26T13:39:31.361Z,604.00
2023-03-26T13:43:31.382Z,600.00
2023-03-26T13:47:31.542Z,610.00
2023-03-26T13:51:31.638Z,602.00
2023-03-26T13:55:31.802Z,599.00
2023-03-26T13:59:31.912Z,608.00
2023-03-26T14:03:32.142Z,597.00
2023-03-26T14:07:32.205Z,616.00
2023-03-26T14:11:32.344Z,628.00
2023-03-26T14:15:32.506Z,579.00
2023-03-26T14:19:32.637Z,584.00
2023-03-26T14:23:32.815Z,569.00
2023-03-26T14:27:32.964Z,574.00
2023-03-26T14:31:33.172Z,624.00
2023-03-26T14:35:33.265Z,601.00
2023-03-26T14:39:33.423Z,603.00
2023-03-26T14:43:33.593Z,590.00
2023-03-26T14:47:33.964Z,591.00
2023-03-26T14:51:33.989Z,577.00
2023-03-26T14:55:34.148Z,602.00
2023-03-26T14:59:34.344Z,581.00
2023-03-26T15:03:34.543Z,568.00
2023-03-26T15:07:34.679Z,581.00
2023-03-26T15:11:34.886Z,578.00
2023-03-26T15:15:35.092Z,567.00
2023-03-26T15:19:35.257Z,584.00
2023-03-26T15:23:35.441Z,567.00
2023-03-26T15:27:35.675Z,553.00
2023-03-26T15:31:35.881Z,535.00
2023-03-26T15:35:36.070Z,547.00
2023-03-26T15:39:36.248Z,571.00
2023-03-26T15:43:36.473Z,576.00
2023-03-26T15:47:36.721Z,598.00
2023-03-26T15:51:46.583Z,596.00
2023-03-26T15:55:37.852Z,601.00
2023-03-26T15:59:36.818Z,599.00
2023-03-26T16:03:36.916Z,590.00
2023-03-26T16:07:37.116Z,609.00
2023-03-26T16:11:37.103Z,581.00
2023-03-26T16:15:37.105Z,592.00
2023-03-26T16:19:37.026Z,612.00
2023-03-26T16:23:47.201Z,624.00
2023-03-26T16:27:38.135Z,648.00
2023-03-26T16:31:39.241Z,652.00
2023-03-26T16:35:37.600Z,700.00
2023-03-26T16:39:37.507Z,705.00
2023-03-26T16:43:37.472Z,727.00
2023-03-26T16:47:37.459Z,691.00
2023-03-26T16:51:37.408Z,710.00
2023-03-26T16:55:37.400Z,690.00
2023-03-26T16:59:37.325Z,720.00
2023-03-26T17:03:37.455Z,655.00
2023-03-26T17:07:37.243Z,694.00
2023-03-26T17:11:37.270Z,683.00
2023-03-26T17:15:37.221Z,746.00
2023-03-26T17:19:37.229Z,772.00
2023-03-26T17:23:39.659Z,794.00
2023-03-26T17:27:37.123Z,771.00
2023-03-26T17:31:37.150Z,830.00
2023-03-26T17:35:37.098Z,934.00
2023-03-26T17:39:37.000Z,1005.00
2023-03-26T17:43:36.961Z,919.00
2023-03-26T17:47:36.948Z,991.00
2023-03-26T17:51:36.898Z,948.00
2023-03-26T17:55:36.877Z,985.00
2023-03-26T17:59:38.784Z,1022.00
2023-03-26T18:03:36.829Z,979.00
2023-03-26T18:07:36.756Z,844.00
2023-03-26T18:11:36.700Z,939.00
2023-03-26T18:15:36.687Z,863.00
2023-03-26T18:19:36.635Z,863.00
2023-03-26T18:23:36.603Z,798.00
2023-03-26T18:27:36.570Z,680.00
2023-03-26T18:31:36.548Z,632.00
2023-03-26T18:35:36.523Z,663.00
2023-03-26T18:39:36.445Z,776.00
2023-03-26T18:43:44.475Z,714.00
2023-03-26T18:47:37.391Z,741.00
2023-03-26T18:51:43.202Z,784.00
2023-03-26T18:55:37.303Z,785.00
2023-03-26T18:59:36.326Z,695.00
2023-03-26T19:03:36.289Z,712.00
2023-03-26T19:07:36.176Z,681.00
2023-03-26T19:11:36.307Z,631.00
2023-03-26T19:15:36.450Z,605.00
2023-03-26T19:19:36.603Z,723.00
2023-03-26T19:23:36.753Z,680.00
2023-03-26T19:27:36.962Z,700.00
2023-03-26T19:31:37.189Z,797.00
2023-03-26T19:35:37.246Z,837.00
2023-03-26T19:39:37.811Z,666.00
2023-03-26T19:43:37.525Z,658.00
2023-03-26T19:47:48.466Z,656.00
2023-03-26T19:51:38.657Z,632.00
2023-03-26T19:55:37.599Z,616.00
2023-03-26T19:59:37.735Z,632.00
2023-03-26T20:03:38.234Z,666.00
2023-03-26T20:07:38.067Z,605.00
2023-03-26T20:11:38.182Z,607.00
2023-03-26T20:15:38.325Z,611.00
2023-03-26T20:19:38.428Z,548.00
2023-03-26T20:23:38.541Z,560.00
2023-03-26T20:27:38.650Z,566.00
2023-03-26T20:31:38.770Z,568.00
2023-03-26T20:35:38.920Z,558.00
2023-03-26T20:39:39.073Z,543.00
2023-03-26T20:43:39.196Z,500.00
2023-03-26T20:47:39.322Z,551.00
2023-03-26T20:51:39.451Z,566.00
2023-03-26T20:55:41.134Z,556.00
2023-03-26T20:59:39.801Z,574.00
2023-03-26T21:03:39.793Z,556.00
2023-03-26T21:07:39.919Z,559.00
2023-03-26T21:11:40.024Z,583.00
2023-03-26T21:15:40.186Z,588.00
2023-03-26T21:19:40.267Z,631.00
2023-03-26T21:23:40.309Z,573.00
2023-03-26T21:27:40.408Z,566.00
2023-03-26T21:31:40.530Z,545.00
2023-03-26T21:35:40.630Z,545.00
2023-03-26T21:39:40.551Z,511.00
2023-03-26T21:43:40.635Z,554.00
2023-03-26T21:47:40.734Z,635.00
2023-03-26T21:51:40.708Z,568.00
2023-03-26T21:55:40.749Z,574.00
2023-03-26T21:59:40.749Z,566.00
2023-03-26T22:03:40.797Z,570.00
2023-03-26T22:07:40.798Z,553.00
2023-03-26T22:11:40.799Z,545.00
2023-03-26T22:15:40.814Z,579.00
2023-03-26T22:19:40.793Z,503.00
2023-03-26T22:23:40.850Z,542.00
2023-03-26T22:27:44.163Z,532.00
2023-03-26T22:31:40.911Z,556.00
2023-03-26T22:35:40.825Z,517.00
2023-03-26T22:39:40.757Z,514.00
2023-03-26T22:43:40.704Z,589.00
2023-03-26T22:47:40.675Z,541.00
2023-03-26T22:51:40.619Z,532.00
2023-03-26T22:55:40.585Z,596.00
2023-03-26T22:59:40.541Z,570.00
2023-03-26T23:03:40.522Z,545.00
2023-03-26T23:07:40.475Z,600.00
2023-03-26T23:11:40.430Z,565.00
2023-03-26T23:15:40.398Z,547.00
2023-03-26T23:19:40.369Z,555.00
2023-03-26T23:23:40.320Z,530.00
2023-03-26T23:27:40.329Z,516.00
2023-03-26T23:31:40.304Z,536.00
2023-03-26T23:35:40.209Z,621.00
2023-03-26T23:39:40.191Z,545.00
2023-03-26T23:43:40.147Z,616.00
2023-03-26T23:47:41.132Z,643.00
2023-03-26T23:51:40.093Z,612.00
2023-03-26T23:55:40.046Z,620.00
2023-03-26T23:59:39.985Z,718.00
